Time;durP1;ratioP1;P1;durP2;ratioP2;P2;SDS_P1;SDS_P2;PMS_P1;PMS_P2;Temp;Humidity;BMP_temperature;BMP_pressure;BME280_temperature;BME280_humidity;BME280_pressure;Samples;Min_cycle;Max_cycle;Signal;HPM_P1;HPM_P2
2023/10/03 00:01:06;;;;;;;;;;;24.10;53.10;;;;;;5107792;28;20354;-60
2023/10/03 00:03:33;;;;;;;;;;;24.10;53.10;;;;;;5097263;28;19924;-60
2023/10/03 00:06:00;;;;;;;;;;;24.10;53.10;;;;;;5093304;28;19946;-61
2023/10/03 00:08:27;;;;;;;;;;;24.00;53.10;;;;;;5093364;28;19928;-60
2023/10/03 00:10:55;;;;;;;;;;;24.00;53.10;;;;;;5113027;28;20374;-61
2023/10/03 00:13:24;;;;;;;;;;;24.00;53.10;;;;;;5114054;28;20026;-60
2023/10/03 00:15:51;;;;;;;;;;;24.00;53.10;;;;;;5114119;28;20047;-60
2023/10/03 00:18:19;;;;;;;;;;;24.00;53.10;;;;;;5114141;28;19931;-60
2023/10/03 00:20:47;;;;;;;;;;;24.00;53.10;;;;;;5113801;28;19954;-60
2023/10/03 00:23:14;;;;;;;;;;;24.10;53.10;;;;;;5113297;28;19923;-60
2023/10/03 00:25:41;;;;;;;;;;;24.00;53.00;;;;;;5113816;28;20335;-60
2023/10/03 00:28:10;;;;;;;;;;;24.10;53.10;;;;;;5114030;28;19924;-60
2023/10/03 00:30:39;;;;;;;;;;;24.10;53.10;;;;;;5112927;28;19923;-60
2023/10/03 00:33:10;;;;;;;;;;;24.10;53.10;;;;;;5113964;28;19923;-60
2023/10/03 00:35:40;;;;;;;;;;;24.10;53.10;;;;;;5113027;28;20383;-60
2023/10/03 00:38:13;;;;;;;;;;;24.10;53.00;;;;;;5113122;28;19946;-60
2023/10/03 00:40:48;;;;;;;;;;;24.10;53.00;;;;;;5113779;28;19924;-60
2023/10/03 00:43:16;;;;;;;;;;;24.10;53.00;;;;;;5113627;28;19923;-60
2023/10/03 00:45:43;;;;;;;;;;;24.10;53.10;;;;;;5112269;28;19928;-60
2023/10/03 00:48:13;;;;;;;;;;;24.00;53.00;;;;;;5111093;28;20014;-60
2023/10/03 00:50:42;;;;;;;;;;;24.00;53.00;;;;;;5096929;28;19947;-60
2023/10/03 00:53:12;;;;;;;;;;;24.00;53.00;;;;;;5097010;28;19974;-61
2023/10/03 00:55:43;;;;;;;;;;;24.00;53.00;;;;;;5096231;28;19928;-60
2023/10/03 00:58:27;;;;;;;;;;;24.00;53.10;;;;;;5112062;28;19967;-60
2023/10/03 01:00:57;;;;;;;;;;;24.00;53.10;;;;;;5115789;28;19924;-60
2023/10/03 01:03:37;;;;;;;;;;;24.00;53.10;;;;;;5117599;28;20355;-60
2023/10/03 01:06:10;;;;;;;;;;;24.00;53.10;;;;;;5107660;28;19931;-60
2023/10/03 01:08:40;;;;;;;;;;;24.00;53.10;;;;;;5096634;28;20311;-60
2023/10/03 01:11:13;;;;;;;;;;;24.00;53.10;;;;;;5095386;28;20331;-60
2023/10/03 01:13:40;;;;;;;;;;;23.90;53.10;;;;;;5096690;28;20030;-60
2023/10/03 01:16:07;;;;;;;;;;;24.00;53.20;;;;;;5096482;28;20023;-61
2023/10/03 01:18:37;;;;;;;;;;;24.00;53.20;;;;;;5094741;28;20365;-60
2023/10/03 01:21:06;;;;;;;;;;;23.90;53.10;;;;;;5112072;28;20300;-61
2023/10/03 01:23:39;;;;;;;;;;;23.90;53.10;;;;;;5116422;28;19931;-61
2023/10/03 01:26:09;;;;;;;;;;;23.90;53.10;;;;;;5116385;28;20322;-61
2023/10/03 01:28:38;;;;;;;;;;;23.90;53.10;;;;;;5117183;28;19924;-60
2023/10/03 01:31:05;;;;;;;;;;;23.90;53.20;;;;;;5116159;28;19962;-61
2023/10/03 01:33:33;;;;;;;;;;;23.90;53.10;;;;;;5116755;28;19929;-60
2023/10/03 01:36:02;;;;;;;;;;;23.90;53.10;;;;;;5116867;28;19931;-60
2023/10/03 01:38:29;;;;;;;;;;;23.90;53.20;;;;;;5116944;28;19927;-60
2023/10/03 01:40:57;;;;;;;;;;;23.90;53.70;;;;;;5116012;28;19931;-60
2023/10/03 01:43:24;;;;;;;;;;;23.90;53.10;;;;;;5115701;27;19928;-60
2023/10/03 01:45:53;;;;;;;;;;;23.90;53.10;;;;;;5116795;28;20283;-60
2023/10/03 01:48:20;;;;;;;;;;;23.90;53.10;;;;;;5116239;28;20030;-60
2023/10/03 01:50:50;;;;;;;;;;;23.90;53.10;;;;;;5073053;28;19924;-60
2023/10/03 01:53:19;;;;;;;;;;;23.90;53.00;;;;;;5075504;28;19925;-60
2023/10/03 01:55:46;;;;;;;;;;;23.90;53.00;;;;;;5075659;28;19924;-60
2023/10/03 01:58:13;;;;;;;;;;;24.00;53.00;;;;;;5075357;28;20030;-60
2023/10/03 02:00:40;;;;;;;;;;;24.00;53.00;;;;;;5079379;28;19931;-60
2023/10/03 02:03:12;;;;;;;;;;;24.00;53.00;;;;;;5095645;28;19924;-60
2023/10/03 02:05:43;;;;;;;;;;;24.00;53.00;;;;;;5095301;28;19928;-60
2023/10/03 02:08:15;;;;;;;;;;;24.00;53.30;;;;;;5095646;28;19924;-61
2023/10/03 02:10:46;;;;;;;;;;;23.90;53.00;;;;;;5094877;28;19970;-60
2023/10/03 02:13:17;;;;;;;;;;;23.90;53.00;;;;;;5095369;28;20003;-61
2023/10/03 02:15:45;;;;;;;;;;;23.90;53.10;;;;;;5095454;28;20369;-60
2023/10/03 02:18:13;;;;;;;;;;;23.90;53.10;;;;;;5095064;28;19947;-61
2023/10/03 02:20:47;;;;;;;;;;;23.90;53.10;;;;;;5094822;28;19954;-61
2023/10/03 02:23:19;;;;;;;;;;;23.90;53.10;;;;;;5094491;28;19927;-61
2023/10/03 02:25:47;;;;;;;;;;;23.90;53.10;;;;;;5094922;28;19924;-61
2023/10/03 02:28:16;;;;;;;;;;;23.90;53.10;;;;;;5095029;28;19924;-61
2023/10/03 02:30:44;;;;;;;;;;;23.90;53.10;;;;;;5094370;28;19928;-60
2023/10/03 02:33:15;;;;;;;;;;;23.90;53.10;;;;;;5093879;28;20369;-60
2023/10/03 02:35:42;;;;;;;;;;;23.90;53.20;;;;;;5094509;28;19928;-60
2023/10/03 02:38:23;;;;;;;;;;;23.90;53.20;;;;;;5094392;28;19977;-60
2023/10/03 02:40:52;;;;;;;;;;;23.90;53.20;;;;;;5092986;28;19959;-60
2023/10/03 02:43:19;;;;;;;;;;;23.90;53.20;;;;;;5094968;28;19978;-61
2023/10/03 02:45:46;;;;;;;;;;;23.90;53.20;;;;;;5095162;28;19959;-60
2023/10/03 02:48:14;;;;;;;;;;;23.90;53.20;;;;;;5094667;28;19924;-60
2023/10/03 02:50:42;;;;;;;;;;;23.90;53.20;;;;;;5093825;28;19924;-60
2023/10/03 02:53:12;;;;;;;;;;;23.90;53.30;;;;;;5095025;28;19924;-60
2023/10/03 02:55:41;;;;;;;;;;;23.90;53.20;;;;;;5094492;28;19974;-61
2023/10/03 02:58:09;;;;;;;;;;;23.80;53.20;;;;;;5094760;28;19971;-60
2023/10/03 03:00:37;;;;;;;;;;;23.80;53.20;;;;;;5100067;28;20030;-60
2023/10/03 03:03:06;;;;;;;;;;;23.80;53.20;;;;;;5115193;28;19931;-60
2023/10/03 03:05:37;;;;;;;;;;;23.90;53.20;;;;;;5114484;28;19927;-60
2023/10/03 03:08:23;;;;;;;;;;;23.80;53.20;;;;;;5114320;28;19923;-60
2023/10/03 03:10:55;;;;;;;;;;;23.80;53.10;;;;;;5113675;28;19997;-60
2023/10/03 03:13:23;;;;;;;;;;;23.90;53.70;;;;;;5102039;28;19986;-61
2023/10/03 03:15:57;;;;;;;;;;;23.90;53.10;;;;;;5094048;28;19960;-60
2023/10/03 03:18:27;;;;;;;;;;;23.90;53.10;;;;;;5094350;28;19924;-61
2023/10/03 03:20:57;;;;;;;;;;;23.90;53.10;;;;;;5093334;28;20377;-60
2023/10/03 03:23:30;;;;;;;;;;;23.90;53.00;;;;;;5091824;28;20275;-60
2023/10/03 03:28:46;;;;;;;;;;;23.90;53.00;;;;;;5086440;28;20380;-60
2023/10/03 03:31:20;;;;;;;;;;;23.90;53.00;;;;;;5083598;28;19924;-60
2023/10/03 03:33:49;;;;;;;;;;;23.90;53.00;;;;;;5092649;28;19931;-61
2023/10/03 03:36:17;;;;;;;;;;;23.90;53.00;;;;;;5093673;28;20011;-61
2023/10/03 03:38:44;;;;;;;;;;;23.90;53.00;;;;;;5092688;28;19971;-61
2023/10/03 03:41:12;;;;;;;;;;;23.90;53.10;;;;;;5096622;28;19924;-60
2023/10/03 03:43:39;;;;;;;;;;;23.90;53.10;;;;;;5114557;28;19934;-60
2023/10/03 03:46:08;;;;;;;;;;;23.80;53.00;;;;;;5112300;28;19967;-60
2023/10/03 03:48:36;;;;;;;;;;;23.80;53.10;;;;;;5078084;28;19924;-60
2023/10/03 03:51:07;;;;;;;;;;;23.80;53.10;;;;;;5110797;28;19928;-60
2023/10/03 03:53:36;;;;;;;;;;;23.80;53.10;;;;;;5073156;28;19924;-61
2023/10/03 03:56:07;;;;;;;;;;;23.80;53.10;;;;;;5073947;28;19975;-60
2023/10/03 03:58:36;;;;;;;;;;;23.80;53.20;;;;;;5084689;28;20411;-60
2023/10/03 04:01:12;;;;;;;;;;;23.80;53.10;;;;;;5071535;28;20296;-60
2023/10/03 04:03:39;;;;;;;;;;;23.80;53.10;;;;;;5073202;28;20027;-60
2023/10/03 04:06:07;;;;;;;;;;;23.80;53.10;;;;;;5072575;28;19925;-60
2023/10/03 04:08:35;;;;;;;;;;;23.80;53.20;;;;;;5073051;28;19947;-61
2023/10/03 04:11:05;;;;;;;;;;;23.80;53.20;;;;;;5071532;28;19929;-60
2023/10/03 04:13:38;;;;;;;;;;;23.80;53.20;;;;;;5073242;28;19929;-61
2023/10/03 04:16:06;;;;;;;;;;;23.80;53.20;;;;;;5082594;28;19931;-60
2023/10/03 04:18:34;;;;;;;;;;;23.80;53.20;;;;;;5093096;28;19931;-61
2023/10/03 04:21:01;;;;;;;;;;;23.80;53.20;;;;;;5092886;28;19967;-60
2023/10/03 04:23:28;;;;;;;;;;;23.80;53.20;;;;;;5093684;28;19990;-61
2023/10/03 04:25:55;;;;;;;;;;;23.70;53.20;;;;;;5097863;28;19924;-61
2023/10/03 04:28:22;;;;;;;;;;;23.70;53.20;;;;;;5096874;28;20440;-61
2023/10/03 04:30:49;;;;;;;;;;;23.70;53.20;;;;;;5096226;28;20021;-61
2023/10/03 04:33:20;;;;;;;;;;;23.70;53.20;;;;;;5096725;28;20273;-62
2023/10/03 04:35:49;;;;;;;;;;;23.70;53.10;;;;;;5097536;28;20280;-61
2023/10/03 04:38:17;;;;;;;;;;;23.70;53.10;;;;;;5096620;28;20372;-61
2023/10/03 04:40:45;;;;;;;;;;;23.70;53.00;;;;;;5098157;28;20024;-61
2023/10/03 04:43:14;;;;;;;;;;;23.70;52.90;;;;;;5097118;28;19977;-60
2023/10/03 04:45:42;;;;;;;;;;;23.70;52.90;;;;;;5087278;28;20213;-61
2023/10/03 04:48:10;;;;;;;;;;;23.70;52.80;;;;;;5077783;28;20282;-60
2023/10/03 04:50:39;;;;;;;;;;;23.70;52.60;;;;;;5087278;28;19971;-60
2023/10/03 04:53:09;;;;;;;;;;;23.80;52.60;;;;;;5087037;28;19924;-60
2023/10/03 04:55:36;;;;;;;;;;;23.80;52.50;;;;;;5087690;28;20415;-60
2023/10/03 04:58:03;;;;;;;;;;;23.90;52.30;;;;;;5085504;28;19932;-60
2023/10/03 05:00:30;;;;;;;;;;;23.90;52.20;;;;;;5093094;28;19969;-60
2023/10/03 05:02:57;;;;;;;;;;;23.90;52.00;;;;;;5096122;28;19978;-60
2023/10/03 05:05:26;;;;;;;;;;;23.90;51.90;;;;;;5096736;28;19924;-60
2023/10/03 05:07:56;;;;;;;;;;;23.90;51.70;;;;;;5096239;28;20330;-60
2023/10/03 05:10:23;;;;;;;;;;;24.00;51.60;;;;;;5095345;28;19939;-61
2023/10/03 05:12:54;;;;;;;;;;;24.00;51.40;;;;;;5101537;28;19924;-61
2023/10/03 05:15:21;;;;;;;;;;;24.00;51.20;;;;;;5117095;28;19946;-61
2023/10/03 05:17:48;;;;;;;;;;;24.10;51.10;;;;;;5098680;28;20019;-61
2023/10/03 05:20:20;;;;;;;;;;;24.10;50.90;;;;;;5080047;28;19954;-61
2023/10/03 05:22:47;;;;;;;;;;;24.10;50.80;;;;;;5085747;28;19925;-62
2023/10/03 05:25:18;;;;;;;;;;;24.20;50.60;;;;;;5081516;28;20447;-62
2023/10/03 05:27:48;;;;;;;;;;;24.20;50.30;;;;;;5082388;28;19965;-62
2023/10/03 05:30:15;;;;;;;;;;;24.30;50.30;;;;;;5079574;28;19932;-61
2023/10/03 05:32:46;;;;;;;;;;;24.30;50.10;;;;;;5072158;28;19924;-61
2023/10/03 05:35:13;;;;;;;;;;;24.30;49.90;;;;;;5074084;28;20394;-61
2023/10/03 05:37:40;;;;;;;;;;;24.40;49.90;;;;;;5061773;28;19936;-61
2023/10/03 05:40:11;;;;;;;;;;;24.40;49.70;;;;;;5072881;28;20400;-62
2023/10/03 05:42:40;;;;;;;;;;;24.50;49.60;;;;;;5064359;28;20031;-62
2023/10/03 05:45:12;;;;;;;;;;;24.50;49.50;;;;;;5061354;28;20406;-64
2023/10/03 05:47:40;;;;;;;;;;;24.50;49.60;;;;;;5061476;28;20482;-64
2023/10/03 05:50:09;;;;;;;;;;;24.60;49.40;;;;;;5069511;28;19924;-62
2023/10/03 05:52:37;;;;;;;;;;;24.60;49.30;;;;;;5066470;28;20297;-60
2023/10/03 05:55:05;;;;;;;;;;;24.60;49.20;;;;;;5071354;28;20031;-60
2023/10/03 05:57:33;;;;;;;;;;;24.60;49.10;;;;;;5068886;28;20377;-60
2023/10/03 06:00:00;;;;;;;;;;;24.70;49.00;;;;;;5068205;28;19955;-63
2023/10/03 06:02:27;;;;;;;;;;;24.70;49.00;;;;;;5063282;28;19932;-60
2023/10/03 06:04:55;;;;;;;;;;;24.80;49.20;;;;;;5078292;28;19924;-61
2023/10/03 06:07:23;;;;;;;;;;;24.80;48.90;;;;;;5063748;28;20311;-62
2023/10/03 06:09:53;;;;;;;;;;;24.80;48.80;;;;;;5066122;28;19932;-63
2023/10/03 06:12:20;;;;;;;;;;;24.90;48.80;;;;;;5084317;28;19997;-62
2023/10/03 06:14:48;;;;;;;;;;;24.90;48.80;;;;;;5075323;28;20373;-62
2023/10/03 06:17:17;;;;;;;;;;;24.90;48.60;;;;;;5089682;28;19932;-62
2023/10/03 06:19:44;;;;;;;;;;;25.00;48.50;;;;;;5076021;28;19939;-62
2023/10/03 06:22:12;;;;;;;;;;;25.10;48.50;;;;;;5071915;28;20384;-62
2023/10/03 06:24:39;;;;;;;;;;;25.10;48.40;;;;;;5076188;28;19978;-61
2023/10/03 06:27:09;;;;;;;;;;;25.10;48.40;;;;;;5076436;28;20288;-62
2023/10/03 06:29:39;;;;;;;;;;;25.20;48.40;;;;;;5076506;28;19932;-64
2023/10/03 06:32:06;;;;;;;;;;;25.20;48.40;;;;;;5076060;28;19982;-61
2023/10/03 06:34:33;;;;;;;;;;;25.20;48.40;;;;;;5079921;28;19971;-62
2023/10/03 06:37:00;;;;;;;;;;;25.30;48.40;;;;;;5080426;28;20011;-62
2023/10/03 06:39:27;;;;;;;;;;;25.30;48.50;;;;;;5075891;28;19986;-62
2023/10/03 06:41:55;;;;;;;;;;;25.30;48.50;;;;;;5079585;28;19928;-62
2023/10/03 06:44:23;;;;;;;;;;;25.30;48.60;;;;;;5077599;28;19924;-63
2023/10/03 06:46:50;;;;;;;;;;;25.30;48.40;;;;;;5074401;28;20381;-62
2023/10/03 06:49:19;;;;;;;;;;;25.40;48.30;;;;;;5082418;28;19932;-62
2023/10/03 06:51:46;;;;;;;;;;;25.40;48.30;;;;;;5072464;28;19979;-62
2023/10/03 06:54:13;;;;;;;;;;;25.40;48.20;;;;;;5080169;28;19985;-61
2023/10/03 06:56:41;;;;;;;;;;;25.40;48.30;;;;;;5076816;28;19932;-62
2023/10/03 06:59:10;;;;;;;;;;;25.50;48.40;;;;;;5077653;28;19932;-63
2023/10/03 07:01:38;;;;;;;;;;;25.50;48.30;;;;;;5073999;28;20471;-60
2023/10/03 07:04:06;;;;;;;;;;;25.50;48.20;;;;;;5070316;28;19932;-65
2023/10/03 07:06:34;;;;;;;;;;;25.50;48.30;;;;;;5068752;28;20399;-61
2023/10/03 07:09:06;;;;;;;;;;;25.60;48.40;;;;;;5070191;28;20035;-61
2023/10/03 07:11:33;;;;;;;;;;;25.60;48.20;;;;;;5066916;28;20269;-62
2023/10/03 07:14:00;;;;;;;;;;;25.70;48.20;;;;;;5083424;28;19924;-60
2023/10/03 07:16:30;;;;;;;;;;;25.70;48.30;;;;;;5074456;28;19924;-62
2023/10/03 07:18:57;;;;;;;;;;;25.70;48.30;;;;;;5072111;28;20785;-68
2023/10/03 07:21:25;;;;;;;;;;;25.80;48.30;;;;;;5074256;28;20372;-64
2023/10/03 07:23:53;;;;;;;;;;;25.80;48.40;;;;;;5076179;28;19942;-62
2023/10/03 07:26:20;;;;;;;;;;;25.80;48.40;;;;;;5070615;28;19944;-62
2023/10/03 07:28:47;;;;;;;;;;;25.80;48.40;;;;;;5070573;28;19959;-63
2023/10/03 07:31:15;;;;;;;;;;;25.90;48.40;;;;;;5071896;28;19939;-63
2023/10/03 07:33:47;;;;;;;;;;;25.90;48.30;;;;;;5066727;28;19932;-68
2023/10/03 07:36:17;;;;;;;;;;;25.90;48.30;;;;;;5071966;28;19933;-62
2023/10/03 07:38:45;;;;;;;;;;;26.00;48.40;;;;;;5070324;28;19932;-62
2023/10/03 07:41:17;;;;;;;;;;;26.00;48.50;;;;;;5075792;28;19932;-61
2023/10/03 07:43:47;;;;;;;;;;;26.00;48.30;;;;;;5072794;28;19958;-62
2023/10/03 07:46:19;;;;;;;;;;;26.00;48.30;;;;;;5074429;28;19924;-61
2023/10/03 07:48:46;;;;;;;;;;;26.00;48.10;;;;;;5072668;28;19935;-64
2023/10/03 07:51:17;;;;;;;;;;;26.10;48.20;;;;;;5072867;28;19943;-60
2023/10/03 07:53:45;;;;;;;;;;;26.10;48.10;;;;;;5071555;28;19932;-60
2023/10/03 07:56:24;;;;;;;;;;;26.10;48.10;;;;;;5072801;28;19938;-62
2023/10/03 07:58:54;;;;;;;;;;;26.10;48.10;;;;;;5075392;28;19938;-62
2023/10/03 08:01:26;;;;;;;;;;;26.20;47.90;;;;;;5075801;28;19978;-61
2023/10/03 08:03:54;;;;;;;;;;;26.20;47.90;;;;;;5072680;28;19970;-66
2023/10/03 08:06:23;;;;;;;;;;;26.20;47.70;;;;;;5073104;28;19924;-62
2023/10/03 08:08:53;;;;;;;;;;;26.30;47.90;;;;;;5076477;28;19924;-60
2023/10/03 08:11:28;;;;;;;;;;;26.30;47.70;;;;;;5074922;28;19939;-61
2023/10/03 08:13:56;;;;;;;;;;;26.40;47.70;;;;;;5077243;28;19928;-60
2023/10/03 08:16:23;;;;;;;;;;;26.40;47.60;;;;;;5077197;28;20419;-60
2023/10/03 08:18:57;;;;;;;;;;;26.50;47.50;;;;;;5071961;28;19933;-66
2023/10/03 08:21:27;;;;;;;;;;;26.50;47.50;;;;;;5075332;28;19925;-60
2023/10/03 08:23:55;;;;;;;;;;;26.50;47.40;;;;;;5072313;28;19939;-60
2023/10/03 08:26:22;;;;;;;;;;;26.60;47.40;;;;;;5074333;28;19938;-60
2023/10/03 08:28:59;;;;;;;;;;;26.60;47.40;;;;;;5072746;28;20029;-61
2023/10/03 08:31:30;;;;;;;;;;;26.60;47.40;;;;;;5076798;28;21919;-61
2023/10/03 08:33:57;;;;;;;;;;;26.60;47.30;;;;;;5070149;28;20010;-65
2023/10/03 08:36:27;;;;;;;;;;;26.60;47.10;;;;;;5075398;28;20368;-61
2023/10/03 08:39:04;;;;;;;;;;;26.70;47.20;;;;;;5075611;28;19979;-62
2023/10/03 08:41:46;;;;;;;;;;;26.70;47.20;;;;;;5070283;28;19932;-62
2023/10/03 08:44:14;;;;;;;;;;;26.70;47.20;;;;;;5075197;28;19943;-62
2023/10/03 08:46:55;;;;;;;;;;;26.80;47.10;;;;;;5073921;28;20027;-62
2023/10/03 08:49:27;;;;;;;;;;;26.80;47.10;;;;;;5071544;28;19947;-61
2023/10/03 08:51:55;;;;;;;;;;;26.80;47.10;;;;;;5073043;28;20046;-59
2023/10/03 08:54:23;;;;;;;;;;;26.80;47.10;;;;;;5071935;28;19933;-62
2023/10/03 08:56:59;;;;;;;;;;;26.80;47.00;;;;;;5075920;28;20026;-62
2023/10/03 08:59:30;;;;;;;;;;;26.80;47.00;;;;;;5070469;28;19930;-62
2023/10/03 09:02:06;;;;;;;;;;;26.90;47.10;;;;;;5067070;28;19925;-62
2023/10/03 09:04:38;;;;;;;;;;;26.90;47.00;;;;;;5074856;28;19932;-62
2023/10/03 09:07:11;;;;;;;;;;;26.90;47.00;;;;;;5072585;28;19944;-62
2023/10/03 09:09:41;;;;;;;;;;;26.90;47.00;;;;;;5069183;28;20376;-62
2023/10/03 09:12:12;;;;;;;;;;;26.90;46.90;;;;;;5075913;28;19936;-62
2023/10/03 09:14:40;;;;;;;;;;;26.90;47.00;;;;;;5080216;28;20069;-62
2023/10/03 09:17:07;;;;;;;;;;;26.90;47.00;;;;;;5078176;28;19939;-62
2023/10/03 09:19:44;;;;;;;;;;;26.90;46.90;;;;;;5071801;28;20300;-63
2023/10/03 09:22:15;;;;;;;;;;;26.90;46.80;;;;;;5074944;28;20014;-61
2023/10/03 09:24:46;;;;;;;;;;;26.90;46.70;;;;;;5077891;28;20030;-61
2023/10/03 09:27:22;;;;;;;;;;;26.90;46.80;;;;;;5071486;28;19928;-62
2023/10/03 09:29:49;;;;;;;;;;;26.90;46.90;;;;;;5073570;28;19959;-62
2023/10/03 09:32:23;;;;;;;;;;;26.90;47.00;;;;;;5080072;28;19928;-61
2023/10/03 09:34:57;;;;;;;;;;;26.80;46.90;;;;;;5077792;28;19943;-62
2023/10/03 09:37:28;;;;;;;;;;;26.80;46.70;;;;;;5070672;28;19924;-63
2023/10/03 09:40:16;;;;;;;;;;;26.80;46.60;;;;;;5074511;28;20307;-62
2023/10/03 09:42:50;;;;;;;;;;;26.80;46.60;;;;;;5071737;28;19928;-61
2023/10/03 09:45:18;;;;;;;;;;;26.80;46.60;;;;;;5072643;28;19924;-62
2023/10/03 09:47:45;;;;;;;;;;;26.80;46.50;;;;;;5075915;28;19928;-62
2023/10/03 09:50:13;;;;;;;;;;;26.80;46.40;;;;;;5073091;28;19974;-66
2023/10/03 09:52:44;;;;;;;;;;;26.80;46.50;;;;;;5077344;28;19932;-62
2023/10/03 09:55:26;;;;;;;;;;;26.80;46.30;;;;;;5075049;28;20038;-61
2023/10/03 09:57:59;;;;;;;;;;;26.70;46.40;;;;;;5078752;28;20299;-63
2023/10/03 10:00:39;;;;;;;;;;;26.60;46.60;;;;;;5083454;28;20401;-64
2023/10/03 10:03:09;;;;;;;;;;;26.50;46.90;;;;;;5084567;28;19931;-63
2023/10/03 10:05:39;;;;;;;;;;;26.40;47.10;;;;;;5081525;28;19928;-61
2023/10/03 10:08:21;;;;;;;;;;;26.30;47.40;;;;;;5076587;28;19968;-62
2023/10/03 10:11:10;;;;;;;;;;;26.10;47.80;;;;;;5079467;28;19925;-63
2023/10/03 10:13:44;;;;;;;;;;;26.00;48.30;;;;;;5081552;28;19950;-64
2023/10/03 10:16:16;;;;;;;;;;;25.70;48.50;;;;;;5077950;28;20005;-64
2023/10/03 10:19:03;;;;;;;;;;;25.60;49.00;;;;;;5075899;28;20428;-67
2023/10/03 10:21:32;;;;;;;;;;;25.40;49.10;;;;;;5077151;28;19936;-65
2023/10/03 10:24:28;;;;;;;;;;;25.30;49.60;;;;;;5081356;28;20012;-64
2023/10/03 10:26:59;;;;;;;;;;;25.10;49.90;;;;;;5084006;28;20332;-62
2023/10/03 10:29:28;;;;;;;;;;;24.80;50.40;;;;;;5078878;28;19925;-62
2023/10/03 10:31:58;;;;;;;;;;;24.60;50.90;;;;;;5081580;28;19928;-63
2023/10/03 10:34:32;;;;;;;;;;;24.40;51.30;;;;;;5076248;28;19925;-62
2023/10/03 10:37:07;;;;;;;;;;;24.20;51.80;;;;;;5080833;28;19924;-63
2023/10/03 10:40:09;;;;;;;;;;;24.10;52.10;;;;;;5064132;28;19932;-64
2023/10/03 10:42:57;;;;;;;;;;;23.90;52.30;;;;;;5071326;28;19963;-64
2023/10/03 10:45:27;;;;;;;;;;;23.70;52.40;;;;;;5082010;28;20275;-65
2023/10/03 10:47:55;;;;;;;;;;;23.60;52.40;;;;;;5071352;28;19991;-62
2023/10/03 10:50:25;;;;;;;;;;;23.40;52.40;;;;;;5077521;28;19930;-68
2023/10/03 10:52:56;;;;;;;;;;;23.30;52.50;;;;;;5080590;28;20381;-62
2023/10/03 10:55:24;;;;;;;;;;;23.10;52.70;;;;;;5079045;28;20360;-63
2023/10/03 10:58:09;;;;;;;;;;;23.00;52.50;;;;;;5078002;28;20336;-62
2023/10/03 11:00:37;;;;;;;;;;;22.90;52.90;;;;;;5070148;28;19928;-62
2023/10/03 11:03:05;;;;;;;;;;;22.70;53.20;;;;;;5077260;28;19939;-62
2023/10/03 11:05:51;;;;;;;;;;;22.60;53.10;;;;;;5073534;28;20387;-63
2023/10/03 11:08:18;;;;;;;;;;;22.50;53.20;;;;;;5068816;28;20027;-62
2023/10/03 11:10:49;;;;;;;;;;;22.40;53.00;;;;;;5074149;28;19928;-63
2023/10/03 11:13:17;;;;;;;;;;;22.30;53.40;;;;;;5075888;28;20027;-63
2023/10/03 11:15:49;;;;;;;;;;;22.20;52.80;;;;;;5070428;28;20005;-63
2023/10/03 11:18:17;;;;;;;;;;;22.10;54.30;;;;;;5063190;28;19959;-62
2023/10/03 11:20:45;;;;;;;;;;;22.00;52.90;;;;;;5079656;28;20409;-62
2023/10/03 11:23:15;;;;;;;;;;;21.90;53.90;;;;;;5073441;28;20414;-62
2023/10/03 11:25:52;;;;;;;;;;;21.80;54.10;;;;;;5070009;28;19986;-60
2023/10/03 11:28:19;;;;;;;;;;;21.80;53.60;;;;;;5075977;28;19924;-60
2023/10/03 11:31:03;;;;;;;;;;;21.70;53.80;;;;;;5074330;28;19928;-61
2023/10/03 11:33:44;;;;;;;;;;;21.60;54.90;;;;;;5074811;28;19967;-61
2023/10/03 11:36:12;;;;;;;;;;;21.60;53.90;;;;;;5077752;28;19924;-61
2023/10/03 11:38:44;;;;;;;;;;;21.50;55.20;;;;;;5071428;28;19925;-60
2023/10/03 11:41:12;;;;;;;;;;;21.40;55.00;;;;;;5075634;28;19931;-61
2023/10/03 11:43:46;;;;;;;;;;;21.40;55.40;;;;;;5073348;28;19936;-65
2023/10/03 11:46:15;;;;;;;;;;;21.30;55.70;;;;;;5074899;28;19943;-61
2023/10/03 11:48:43;;;;;;;;;;;21.30;54.60;;;;;;5076026;28;20306;-65
2023/10/03 11:51:13;;;;;;;;;;;21.20;56.00;;;;;;5080094;28;19924;-60
2023/10/03 11:53:40;;;;;;;;;;;21.20;56.70;;;;;;5074041;28;19981;-60
2023/10/03 11:56:07;;;;;;;;;;;21.20;56.60;;;;;;5073208;28;19943;-62
2023/10/03 11:58:34;;;;;;;;;;;21.10;55.40;;;;;;5072801;28;19959;-59
2023/10/03 12:01:02;;;;;;;;;;;21.10;56.70;;;;;;5069361;28;20051;-60
2023/10/03 12:03:30;;;;;;;;;;;21.10;55.90;;;;;;5069191;28;20369;-60
2023/10/03 12:05:57;;;;;;;;;;;21.10;55.30;;;;;;5072670;28;20909;-61
2023/10/03 12:08:24;;;;;;;;;;;21.10;56.00;;;;;;5070840;28;19932;-61
2023/10/03 12:10:51;;;;;;;;;;;21.10;55.60;;;;;;5081463;28;20035;-61
2023/10/03 12:13:18;;;;;;;;;;;21.10;55.80;;;;;;5078173;28;19967;-61
2023/10/03 12:15:45;;;;;;;;;;;21.10;55.80;;;;;;5076425;28;19966;-62
2023/10/03 12:18:16;;;;;;;;;;;21.10;56.40;;;;;;5073989;28;19931;-62
2023/10/03 12:20:44;;;;;;;;;;;21.10;55.80;;;;;;5072622;28;19936;-63
2023/10/03 12:23:12;;;;;;;;;;;21.10;55.90;;;;;;5071828;28;19967;-63
2023/10/03 12:25:41;;;;;;;;;;;21.00;56.00;;;;;;5076886;28;19959;-61
2023/10/03 12:28:10;;;;;;;;;;;21.00;56.20;;;;;;5073847;28;20364;-60
2023/10/03 12:30:37;;;;;;;;;;;21.00;56.90;;;;;;5075967;28;19985;-62
2023/10/03 12:33:05;;;;;;;;;;;21.00;56.70;;;;;;5077456;28;19935;-62
2023/10/03 12:35:32;;;;;;;;;;;21.10;57.20;;;;;;5077304;28;20427;-64
2023/10/03 12:37:59;;;;;;;;;;;21.10;56.50;;;;;;5073000;28;20529;-65
2023/10/03 12:40:27;;;;;;;;;;;21.10;56.40;;;;;;5071472;28;19928;-63
2023/10/03 12:42:57;;;;;;;;;;;21.10;56.70;;;;;;5072882;28;19925;-62
2023/10/03 12:45:26;;;;;;;;;;;21.20;56.60;;;;;;5082487;28;20024;-61
2023/10/03 12:47:53;;;;;;;;;;;21.20;56.50;;;;;;5080351;28;20373;-63
2023/10/03 12:50:23;;;;;;;;;;;21.20;56.40;;;;;;5081162;28;19924;-68
2023/10/03 12:52:50;;;;;;;;;;;21.20;56.70;;;;;;5078533;28;20019;-61
2023/10/03 12:55:18;;;;;;;;;;;21.10;56.80;;;;;;5078713;28;19933;-67
2023/10/03 12:57:47;;;;;;;;;;;21.20;56.90;;;;;;5077557;28;19934;-61
2023/10/03 13:00:19;;;;;;;;;;;21.10;57.00;;;;;;5078309;28;19933;-67
2023/10/03 13:02:48;;;;;;;;;;;21.20;57.20;;;;;;5077118;28;19924;-62
2023/10/03 13:05:18;;;;;;;;;;;21.10;57.20;;;;;;5078770;28;19932;-65
2023/10/03 13:07:48;;;;;;;;;;;21.10;57.20;;;;;;5076593;28;19939;-63
2023/10/03 13:10:17;;;;;;;;;;;21.10;57.20;;;;;;5079981;28;19924;-63
2023/10/03 13:12:45;;;;;;;;;;;21.10;57.20;;;;;;5077718;28;19979;-61
2023/10/03 13:15:17;;;;;;;;;;;21.10;57.30;;;;;;5071821;28;19954;-62
2023/10/03 13:17:46;;;;;;;;;;;21.10;57.30;;;;;;5079642;28;19935;-61
2023/10/03 13:20:13;;;;;;;;;;;21.10;57.40;;;;;;5075918;28;19931;-65
2023/10/03 13:22:42;;;;;;;;;;;21.10;57.40;;;;;;5077686;28;19931;-62
2023/10/03 13:25:11;;;;;;;;;;;21.10;57.30;;;;;;5076044;28;19932;-61
2023/10/03 13:27:38;;;;;;;;;;;21.10;57.40;;;;;;5085772;28;19924;-61
2023/10/03 13:30:08;;;;;;;;;;;21.20;57.30;;;;;;5076552;28;20023;-61
2023/10/03 13:32:37;;;;;;;;;;;21.10;57.30;;;;;;5074790;28;19959;-62
2023/10/03 13:35:05;;;;;;;;;;;21.20;57.40;;;;;;5079932;28;19924;-62
2023/10/03 13:37:35;;;;;;;;;;;21.10;57.30;;;;;;5078867;28;19986;-62
2023/10/03 13:40:05;;;;;;;;;;;21.20;57.40;;;;;;5082335;28;20310;-62
2023/10/03 13:42:33;;;;;;;;;;;21.20;57.30;;;;;;5073236;28;20457;-64
2023/10/03 13:45:00;;;;;;;;;;;21.20;57.50;;;;;;5072024;28;19938;-61
2023/10/03 13:47:27;;;;;;;;;;;21.20;57.60;;;;;;5075958;28;19940;-62
2023/10/03 13:49:54;;;;;;;;;;;21.20;57.40;;;;;;5073989;28;19924;-62
2023/10/03 13:52:22;;;;;;;;;;;21.20;57.40;;;;;;5076738;28;19924;-63
2023/10/03 13:54:49;;;;;;;;;;;21.20;57.50;;;;;;5079024;28;19968;-68
2023/10/03 13:57:16;;;;;;;;;;;21.20;57.60;;;;;;5074326;28;19928;-64
2023/10/03 13:59:47;;;;;;;;;;;21.20;57.50;;;;;;5076229;28;19979;-61
2023/10/03 14:02:14;;;;;;;;;;;21.20;57.60;;;;;;5075159;28;20457;-62
2023/10/03 14:04:42;;;;;;;;;;;21.20;58.40;;;;;;5079955;28;19968;-62
2023/10/03 14:07:09;;;;;;;;;;;21.30;65.30;;;;;;5078020;28;19935;-63
2023/10/03 14:09:38;;;;;;;;;;;21.50;69.90;;;;;;5083059;28;20300;-62
2023/10/03 14:12:07;;;;;;;;;;;21.70;73.30;;;;;;5077072;28;19944;-61
2023/10/03 14:14:34;;;;;;;;;;;21.90;73.40;;;;;;5076912;28;19978;-62
2023/10/03 14:17:02;;;;;;;;;;;22.20;74.20;;;;;;5073552;28;19932;-63
2023/10/03 14:19:30;;;;;;;;;;;22.40;73.80;;;;;;5065050;28;19933;-62
2023/10/03 14:21:59;;;;;;;;;;;22.70;73.80;;;;;;5067719;28;20022;-63
2023/10/03 14:24:26;;;;;;;;;;;22.90;73.50;;;;;;5066335;28;19939;-64
2023/10/03 14:26:53;;;;;;;;;;;23.10;73.50;;;;;;5068945;28;19928;-63
2023/10/03 14:29:23;;;;;;;;;;;23.20;73.50;;;;;;5074770;28;20381;-61
2023/10/03 14:31:53;;;;;;;;;;;23.40;73.40;;;;;;5082134;28;19935;-61
2023/10/03 14:34:20;;;;;;;;;;;23.50;72.70;;;;;;5079645;28;20011;-63